Time;durP1;ratioP1;P1;durP2;ratioP2;P2;SDS_P1;SDS_P2;PMS_P1;PMS_P2;Temp;Humidity;BMP_temperature;BMP_pressure;BME280_temperature;BME280_humidity;BME280_pressure;Samples;Min_cycle;Max_cycle;Signal;HPM_P1;HPM_P2
2022/10/14 00:00:44;;;;;;;19.85;16.80;;;;;;;14.35;100.00;101435.28;5306275;28;20066;-74
2022/10/14 00:03:15;;;;;;;19.98;17.88;;;;;;;14.36;100.00;101436.97;5305965;28;20116;-74
2022/10/14 00:05:47;;;;;;;20.50;18.05;;;;;;;14.33;100.00;101434.63;5285363;28;20047;-74
2022/10/14 00:08:18;;;;;;;20.45;17.33;;;;;;;14.32;100.00;101440.88;5302104;28;20473;-74
2022/10/14 00:10:50;;;;;;;20.70;17.27;;;;;;;14.31;100.00;101436.53;5304479;28;20035;-74
2022/10/14 00:13:21;;;;;;;19.13;17.08;;;;;;;14.37;100.00;101443.91;5290529;28;20020;-74
2022/10/14 00:15:52;;;;;;;17.20;15.38;;;;;;;14.39;100.00;101438.47;5311550;28;20027;-74
2022/10/14 00:18:24;;;;;;;20.05;16.40;;;;;;;14.40;100.00;101448.06;5306398;28;20026;-74
2022/10/14 00:20:56;;;;;;;19.25;17.35;;;;;;;14.36;100.00;101440.44;5308389;28;20031;-74
2022/10/14 00:23:28;;;;;;;20.25;17.88;;;;;;;14.41;100.00;101442.66;5290089;28;20020;-74
2022/10/14 00:25:59;;;;;;;19.75;17.70;;;;;;;14.41;100.00;101441.81;5310905;28;20034;-74
2022/10/14 00:28:31;;;;;;;19.02;17.13;;;;;;;14.34;100.00;101439.72;5310386;28;20023;-74
2022/10/14 00:31:03;;;;;;;18.63;16.77;;;;;;;14.39;100.00;101435.84;5303417;28;20078;-74
2022/10/14 00:33:34;;;;;;;21.55;17.02;;;;;;;14.35;100.00;101430.84;5306845;28;20059;-74
2022/10/14 00:36:06;;;;;;;20.27;16.80;;;;;;;14.36;100.00;101434.34;5309856;27;20487;-74
2022/10/14 00:38:37;;;;;;;21.23;17.03;;;;;;;14.38;100.00;101426.28;5306703;28;20484;-74
2022/10/14 00:41:12;;;;;;;17.73;15.93;;;;;;;14.39;100.00;101420.03;5306798;28;20077;-74
2022/10/14 00:44:26;;;;;;;21.33;17.17;;;;;;;14.56;100.00;101416.72;5306533;28;20020;-74
2022/10/14 00:46:58;;;;;;;20.95;16.85;;;;;;;14.38;100.00;101421.00;5306225;28;20035;-74
2022/10/14 00:49:42;;;;;;;20.13;17.70;;;;;;;14.54;100.00;101416.00;5307589;28;20043;-74
2022/10/14 00:52:17;;;;;;;21.00;17.83;;;;;;;14.40;100.00;101414.63;5308085;28;20035;-74
2022/10/14 00:54:53;;;;;;;18.85;17.02;;;;;;;14.42;100.00;101411.84;5306897;28;20469;-74
2022/10/14 00:57:26;;;;;;;20.80;17.70;;;;;;;14.33;100.00;101411.72;5302682;28;20033;-74
2022/10/14 01:00:09;;;;;;;20.55;18.35;;;;;;;14.42;100.00;101396.84;5308332;28;20022;-74
2022/10/14 01:02:40;;;;;;;20.87;18.70;;;;;;;14.34;100.00;101407.28;5302293;28;20480;-74
2022/10/14 01:05:14;;;;;;;24.83;18.73;;;;;;;14.35;100.00;101401.84;5304874;28;20292;-74
2022/10/14 01:08:08;;;;;;;22.45;17.73;;;;;;;14.55;100.00;101391.31;5307054;28;20024;-74
2022/10/14 01:11:06;;;;;;;20.65;17.98;;;;;;;14.57;100.00;101398.09;5308739;28;20384;-74
2022/10/14 01:13:46;;;;;;;21.90;18.80;;;;;;;14.38;100.00;101390.19;5307933;28;20397;-74
2022/10/14 01:16:29;;;;;;;19.92;17.30;;;;;;;14.39;100.00;101389.22;5305589;28;20403;-74
2022/10/14 01:19:27;;;;;;;20.08;17.95;;;;;;;14.50;100.00;101385.63;5309411;28;20020;-74
2022/10/14 01:22:10;;;;;;;20.60;18.50;;;;;;;14.42;100.00;101382.84;5309462;28;20023;-74
2022/10/14 01:24:52;;;;;;;21.80;19.50;;;;;;;14.35;100.00;101377.31;5299508;28;20033;-74
2022/10/14 01:27:51;;;;;;;23.48;19.25;;;;;;;14.51;100.00;101367.06;5307115;28;20023;-74
2022/10/14 01:30:24;;;;;;;23.48;19.30;;;;;;;14.29;100.00;101364.72;5305370;28;20401;-74
2022/10/14 01:33:07;;;;;;;24.50;20.42;;;;;;;14.38;100.00;101361.22;5309752;28;20107;-74
2022/10/14 01:35:42;;;;;;;22.50;19.17;;;;;;;14.28;100.00;101355.13;5308241;28;20039;-74
2022/10/14 01:38:22;;;;;;;24.50;20.90;;;;;;;14.33;100.00;101359.00;5304286;28;20088;-74
2022/10/14 01:40:56;;;;;;;22.73;20.17;;;;;;;14.29;100.00;101347.09;5306483;28;20028;-74
2022/10/14 01:43:30;;;;;;;24.65;20.10;;;;;;;14.27;100.00;101338.47;5305071;28;20089;-74
2022/10/14 01:46:05;;;;;;;22.20;19.75;;;;;;;14.20;100.00;101333.91;5306358;28;20043;-74
2022/10/14 01:48:39;;;;;;;25.77;21.45;;;;;;;14.25;100.00;101343.06;5311105;28;20019;-74
2022/10/14 01:51:16;;;;;;;23.00;19.80;;;;;;;14.27;100.00;101333.19;5307200;28;20535;-74
2022/10/14 01:53:54;;;;;;;23.60;20.90;;;;;;;14.27;100.00;101327.09;5309459;28;20047;-74
2022/10/14 01:56:28;;;;;;;23.75;20.38;;;;;;;14.27;100.00;101335.00;5306764;28;20043;-74
2022/10/14 01:59:04;;;;;;;22.65;19.52;;;;;;;14.32;100.00;101338.06;5309873;28;20472;-74
2022/10/14 02:01:35;;;;;;;21.95;19.65;;;;;;;14.24;100.00;101338.75;5308778;28;20489;-74
2022/10/14 02:04:18;;;;;;;25.83;19.75;;;;;;;14.40;100.00;101338.19;5310845;28;20701;-74
2022/10/14 02:06:59;;;;;;;22.98;20.08;;;;;;;14.35;100.00;101335.13;5303156;28;20028;-74
2022/10/14 02:09:37;;;;;;;24.42;20.75;;;;;;;14.25;100.00;101335.16;5311423;28;20528;-74
2022/10/14 02:12:27;;;;;;;24.83;20.90;;;;;;;14.47;100.00;101326.09;5304495;28;20035;-74
2022/10/14 02:15:24;;;;;;;24.73;20.60;;;;;;;14.43;100.00;101324.69;5310757;28;20089;-74
2022/10/14 02:18:07;;;;;;;26.10;20.65;;;;;;;14.40;100.00;101318.91;5311012;28;20364;-74
2022/10/14 02:20:45;;;;;;;21.38;19.05;;;;;;;14.33;100.00;101321.28;5301943;28;20019;-74
2022/10/14 02:23:25;;;;;;;25.67;20.50;;;;;;;14.38;100.00;101320.84;5305259;28;20028;-74
2022/10/14 02:25:58;;;;;;;23.00;20.60;;;;;;;14.26;100.00;101323.66;5304925;28;20572;-74
2022/10/14 02:28:31;;;;;;;24.17;20.85;;;;;;;14.28;100.00;101324.34;5307134;28;20024;-74
2022/10/14 02:31:06;;;;;;;24.63;20.52;;;;;;;14.35;100.00;101325.41;5309616;28;20081;-74
2022/10/14 02:33:45;;;;;;;25.00;19.75;;;;;;;14.36;100.00;101310.44;5296964;28;20032;-75
2022/10/14 02:36:20;;;;;;;23.48;19.90;;;;;;;14.36;100.00;101316.56;5307075;28;20031;-74
2022/10/14 02:38:55;;;;;;;22.50;20.10;;;;;;;14.34;100.00;101318.47;5310532;28;20026;-75
2022/10/14 02:41:32;;;;;;;23.73;19.88;;;;;;;14.34;100.00;101317.66;5310689;28;20028;-74
2022/10/14 02:44:07;;;;;;;25.60;19.73;;;;;;;14.29;100.00;101293.53;5310108;28;20054;-74
2022/10/14 02:46:40;;;;;;;28.30;19.98;;;;;;;14.32;100.00;101323.09;5307180;28;20425;-74
2022/10/14 02:49:11;;;;;;;28.52;20.80;;;;;;;14.37;100.00;101317.38;5311028;28;20036;-75
2022/10/14 02:51:43;;;;;;;30.85;20.92;;;;;;;14.33;100.00;101308.09;5310689;28;20026;-74
2022/10/14 02:54:14;;;;;;;29.00;21.02;;;;;;;14.34;100.00;101305.31;5307531;28;20112;-74
2022/10/14 02:56:45;;;;;;;34.20;20.80;;;;;;;14.36;100.00;101302.53;5295134;28;20063;-75
2022/10/14 02:59:16;;;;;;;27.13;19.73;;;;;;;14.34;100.00;101297.41;5307875;28;20400;-75
2022/10/14 03:01:48;;;;;;;24.58;19.13;;;;;;;14.35;100.00;101291.13;5310716;28;20383;-75
2022/10/14 03:04:20;;;;;;;29.67;20.45;;;;;;;14.35;100.00;101293.78;5304210;28;20443;-75
2022/10/14 03:06:51;;;;;;;29.45;20.13;;;;;;;14.40;100.00;101287.28;5311497;28;20027;-75
2022/10/14 03:09:23;;;;;;;28.10;19.20;;;;;;;14.40;100.00;101295.19;5306174;28;20031;-75
2022/10/14 03:11:54;;;;;;;27.35;18.88;;;;;;;14.39;100.00;101288.22;5306226;28;20016;-74
2022/10/14 03:14:25;;;;;;;25.08;18.42;;;;;;;14.38;100.00;101281.31;5306180;28;20036;-75
2022/10/14 03:16:56;;;;;;;22.60;17.83;;;;;;;14.40;100.00;101276.72;5313686;28;20031;-75
2022/10/14 03:19:28;;;;;;;22.77;17.77;;;;;;;14.44;100.00;101286.00;5304731;28;20023;-75
2022/10/14 03:21:59;;;;;;;25.55;18.73;;;;;;;14.44;100.00;101276.28;5308410;28;20020;-75
2022/10/14 03:24:30;;;;;;;23.17;18.42;;;;;;;14.47;100.00;101277.78;5309939;28;20498;-75
2022/10/14 03:27:02;;;;;;;21.90;18.10;;;;;;;14.45;100.00;101272.66;5307977;28;20082;-74
2022/10/14 03:29:33;;;;;;;24.88;18.20;;;;;;;14.48;100.00;101268.94;5305916;28;20099;-75
2022/10/14 03:32:04;;;;;;;24.88;18.63;;;;;;;14.50;100.00;101277.53;5300265;28;20020;-75
2022/10/14 03:34:35;;;;;;;21.35;17.40;;;;;;;14.54;100.00;101261.28;5308466;28;20046;-75
2022/10/14 03:37:07;;;;;;;22.65;17.27;;;;;;;14.54;100.00;101258.63;5310454;28;20019;-75
2022/10/14 03:39:38;;;;;;;21.95;16.80;;;;;;;14.55;100.00;101260.31;5301191;28;20031;-75
2022/10/14 03:42:09;;;;;;;23.48;17.45;;;;;;;14.41;100.00;101241.47;5302543;28;20476;-75
2022/10/14 03:44:41;;;;;;;22.08;16.35;;;;;;;14.45;100.00;101254.22;5308358;28;20067;-74
2022/10/14 03:47:12;;;;;;;20.60;16.20;;;;;;;14.43;100.00;101245.59;5310710;28;20460;-75
2022/10/14 03:49:43;;;;;;;23.08;16.80;;;;;;;14.46;100.00;101244.50;5308939;28;20076;-75
2022/10/14 03:52:14;;;;;;;19.42;16.23;;;;;;;14.41;100.00;101234.41;5310666;28;20022;-75
2022/10/14 03:54:46;;;;;;;21.15;16.08;;;;;;;14.44;100.00;101236.75;5316647;28;20015;-75
2022/10/14 03:57:17;;;;;;;19.65;15.43;;;;;;;14.47;100.00;101243.50;5313829;28;20034;-75
2022/10/14 03:59:48;;;;;;;18.45;15.80;;;;;;;14.45;100.00;101238.41;5312520;28;20392;-75
2022/10/14 04:02:19;;;;;;;19.42;15.68;;;;;;;14.47;100.00;101239.09;5305352;28;20160;-75
2022/10/14 04:04:51;;;;;;;19.80;15.75;;;;;;;14.48;100.00;101237.28;5309081;28;20027;-75
2022/10/14 04:07:22;;;;;;;16.92;15.07;;;;;;;14.48;100.00;101232.00;5300653;28;20029;-74
2022/10/14 04:09:53;;;;;;;18.52;14.88;;;;;;;14.47;100.00;101232.97;5305295;28;20034;-74
2022/10/14 04:12:24;;;;;;;17.65;14.73;;;;;;;14.46;100.00;101226.88;5311222;28;20061;-74
2022/10/14 04:14:56;;;;;;;15.85;14.18;;;;;;;14.46;100.00;101229.50;5309081;28;20184;-74
2022/10/14 04:17:27;;;;;;;15.98;13.43;;;;;;;14.51;100.00;101234.41;5305485;28;20023;-74
2022/10/14 04:19:58;;;;;;;16.80;13.15;;;;;;;14.46;100.00;101229.50;5286638;28;20031;-74
2022/10/14 04:22:30;;;;;;;14.10;12.60;;;;;;;14.51;100.00;101234.41;5311325;28;20020;-74
2022/10/14 04:25:01;;;;;;;15.23;13.68;;;;;;;14.48;100.00;101229.38;5306968;28;20023;-74
2022/10/14 04:27:32;;;;;;;16.30;13.95;;;;;;;14.49;100.00;101220.47;5305748;28;20023;-74
2022/10/14 04:30:04;;;;;;;16.00;12.60;;;;;;;14.50;100.00;101219.53;5307603;28;20032;-74
2022/10/14 04:32:36;;;;;;;15.23;12.82;;;;;;;14.49;100.00;101221.34;5305244;28;20020;-74
2022/10/14 04:35:08;;;;;;;14.77;12.60;;;;;;;14.53;100.00;101213.97;5302965;28;20032;-74
2022/10/14 04:37:39;;;;;;;14.80;12.57;;;;;;;14.52;100.00;101218.41;5310453;28;20081;-74
2022/10/14 04:40:11;;;;;;;13.80;12.30;;;;;;;14.54;100.00;101218.25;5305130;28;20424;-74
2022/10/14 04:42:42;;;;;;;13.68;11.77;;;;;;;14.56;100.00;101214.50;5314788;28;20771;-74
2022/10/14 04:45:13;;;;;;;12.77;11.50;;;;;;;14.54;100.00;101202.44;5309798;28;20481;-74
2022/10/14 04:47:45;;;;;;;13.50;11.38;;;;;;;14.56;100.00;101211.03;5309564;28;20016;-74
2022/10/14 04:50:17;;;;;;;13.35;11.07;;;;;;;14.57;100.00;101202.97;5307436;28;20043;-74
2022/10/14 04:52:48;;;;;;;11.85;10.65;;;;;;;14.54;100.00;101202.44;5306526;28;20031;-74
2022/10/14 04:55:19;;;;;;;12.32;9.88;;;;;;;14.56;100.00;101206.59;5308068;28;20420;-74
2022/10/14 04:57:51;;;;;;;13.50;10.30;;;;;;;14.59;100.00;101198.41;5302334;28;20392;-74
2022/10/14 05:00:22;;;;;;;12.25;10.55;;;;;;;14.55;100.00;101193.56;5308049;28;20380;-74
2022/10/14 05:02:53;;;;;;;11.95;10.73;;;;;;;14.53;100.00;101200.78;5303418;28;20119;-74
2022/10/14 05:05:25;;;;;;;12.73;10.45;;;;;;;14.52;100.00;101197.31;5301847;28;20024;-74
2022/10/14 05:07:57;;;;;;;12.77;10.15;;;;;;;14.52;100.00;101199.97;5304436;28;20027;-74
2022/10/14 05:10:28;;;;;;;10.95;9.98;;;;;;;14.55;100.00;101196.22;5311581;28;20027;-74
2022/10/14 05:12:59;;;;;;;12.85;10.30;;;;;;;14.43;100.00;101179.69;5306360;28;20005;-74
2022/10/14 05:15:31;;;;;;;10.90;9.75;;;;;;;14.54;100.00;101191.91;5306505;28;20032;-74
2022/10/14 05:18:02;;;;;;;10.85;9.65;;;;;;;14.53;100.00;101177.88;5309069;28;20484;-74
2022/10/14 05:20:34;;;;;;;11.15;9.15;;;;;;;14.53;100.00;101172.63;5302517;28;20027;-74
2022/10/14 05:23:05;;;;;;;12.65;10.02;;;;;;;14.56;100.00;101171.50;5316423;28;20495;-74
2022/10/14 05:25:37;;;;;;;11.70;9.65;;;;;;;14.55;100.00;101172.47;5308602;28;20031;-74
2022/10/14 05:28:08;;;;;;;9.73;8.73;;;;;;;14.54;100.00;101170.81;5311496;28;20025;-74
2022/10/14 05:30:40;;;;;;;10.60;9.50;;;;;;;14.57;100.00;101158.16;5301504;28;20020;-73
2022/10/14 05:33:12;;;;;;;10.27;9.27;;;;;;;14.57;100.00;101159.97;5286656;28;20031;-73
2022/10/14 05:35:43;;;;;;;9.65;8.70;;;;;;;14.55;100.00;101154.03;5305711;28;20036;-74
2022/10/14 05:38:14;;;;;;;9.55;8.30;;;;;;;14.55;100.00;101152.22;5317348;28;20031;-74
2022/10/14 05:40:56;;;;;;;9.85;7.88;;;;;;;14.70;100.00;101157.81;5305654;28;20023;-74
2022/10/14 05:43:27;;;;;;;10.57;7.70;;;;;;;14.58;100.00;101146.66;5314600;28;20031;-74
2022/10/14 05:45:59;;;;;;;9.88;7.95;;;;;;;14.58;100.00;101144.00;5313409;28;20031;-74
2022/10/14 05:48:31;;;;;;;10.70;8.43;;;;;;;14.56;100.00;101135.41;5315065;28;20468;-74
2022/10/14 05:51:03;;;;;;;8.18;7.28;;;;;;;14.59;100.00;101140.38;5310736;28;20560;-74
2022/10/14 05:53:35;;;;;;;10.27;8.18;;;;;;;14.56;100.00;101130.13;5303902;28;20022;-74
2022/10/14 05:56:08;;;;;;;8.13;7.32;;;;;;;14.60;100.00;101134.13;5308900;28;20023;-74
2022/10/14 05:58:40;;;;;;;8.82;7.93;;;;;;;14.62;100.00;101138.41;5308721;28;20089;-74
2022/10/14 06:01:11;;;;;;;8.40;7.57;;;;;;;14.58;100.00;101133.47;5305644;28;20027;-74
2022/10/14 06:03:42;;;;;;;8.85;7.63;;;;;;;14.58;100.00;101135.25;5305353;28;20028;-74
2022/10/14 06:06:14;;;;;;;9.13;8.18;;;;;;;14.60;100.00;101136.75;5309002;28;20485;-74
2022/10/14 06:08:45;;;;;;;8.60;7.72;;;;;;;14.60;100.00;101135.94;5309479;28;20039;-74
2022/10/14 06:11:16;;;;;;;10.70;7.53;;;;;;;14.60;100.00;101128.03;5313049;28;20024;-74
2022/10/14 06:13:47;;;;;;;9.15;8.27;;;;;;;14.58;100.00;101125.56;5315438;28;20015;-74
2022/10/14 06:16:19;;;;;;;10.15;8.35;;;;;;;14.65;100.00;101124.94;5312069;28;20027;-74
2022/10/14 06:18:50;;;;;;;8.77;7.97;;;;;;;14.65;100.00;101120.50;5311809;28;20023;-74
2022/10/14 06:21:21;;;;;;;10.05;7.68;;;;;;;14.62;100.00;101115.50;5301772;28;20049;-74
2022/10/14 06:23:53;;;;;;;9.02;8.15;;;;;;;14.63;100.00;101117.19;5303643;28;20117;-75
2022/10/14 06:26:24;;;;;;;8.77;7.88;;;;;;;14.63;100.00;101117.19;5294617;28;20032;-74
2022/10/14 06:28:55;;;;;;;9.63;7.63;;;;;;;14.63;100.00;101119.84;5317307;28;20073;-74
2022/10/14 06:31:26;;;;;;;8.68;7.57;;;;;;;14.63;100.00;101111.09;5308828;28;20548;-74
2022/10/14 06:33:59;;;;;;;8.85;7.32;;;;;;;14.63;100.00;101113.72;5311975;28;20035;-74
2022/10/14 06:36:31;;;;;;;11.52;7.60;;;;;;;14.65;100.00;101117.03;5314709;28;20134;-74
2022/10/14 06:39:03;;;;;;;9.02;8.02;;;;;;;14.62;100.00;101115.50;5309458;28;20028;-74
2022/10/14 06:41:35;;;;;;;8.07;7.30;;;;;;;14.66;100.00;101111.63;5313678;28;20409;-74
2022/10/14 06:44:07;;;;;;;8.15;7.03;;;;;;;14.68;100.00;101101.75;5313253;28;20031;-74
2022/10/14 06:46:38;;;;;;;10.27;7.63;;;;;;;14.68;100.00;101114.09;5306142;28;20435;-74
2022/10/14 06:49:10;;;;;;;8.88;7.80;;;;;;;14.67;100.00;101113.28;5314564;28;20030;-74
2022/10/14 06:51:41;;;;;;;9.05;7.97;;;;;;;14.68;100.00;101107.00;5313667;28;20038;-74
2022/10/14 06:54:12;;;;;;;8.57;7.50;;;;;;;14.71;100.00;101097.97;5288218;28;20113;-74
2022/10/14 06:56:43;;;;;;;8.07;7.25;;;;;;;14.67;100.00;101100.09;5300318;28;20035;-74
2022/10/14 06:59:15;;;;;;;7.90;6.72;;;;;;;14.70;100.00;101101.56;5302867;28;20062;-74
2022/10/14 07:01:46;;;;;;;9.27;7.28;;;;;;;14.70;100.00;101097.16;5312499;28;20024;-74
2022/10/14 07:04:17;;;;;;;9.07;7.38;;;;;;;14.72;100.00;101092.53;5308685;28;20381;-74
2022/10/14 07:06:49;;;;;;;8.65;7.32;;;;;;;14.74;100.00;101087.13;5308664;28;20020;-74
2022/10/14 07:09:20;;;;;;;8.57;7.72;;;;;;;14.75;100.00;101081.69;5305404;28;20024;-74
2022/10/14 07:11:51;;;;;;;8.93;7.70;;;;;;;14.69;100.00;101069.09;5301129;28;20088;-74
2022/10/14 07:14:23;;;;;;;8.40;7.55;;;;;;;14.78;100.00;101084.03;5308241;28;20054;-74
2022/10/14 07:16:54;;;;;;;8.73;7.82;;;;;;;14.80;100.00;101095.25;5301122;28;20023;-74
2022/10/14 07:19:25;;;;;;;8.52;7.65;;;;;;;14.80;100.00;101094.44;5309961;28;20032;-74
2022/10/14 07:21:56;;;;;;;11.15;7.25;;;;;;;14.81;100.00;101091.66;5301871;28;20508;-74
2022/10/14 07:24:28;;;;;;;8.18;7.25;;;;;;;14.81;100.00;101096.94;5305266;28;20063;-74
2022/10/14 07:27:00;;;;;;;8.63;7.80;;;;;;;14.85;100.00;101097.47;5278843;28;20061;-75
2022/10/14 07:29:31;;;;;;;9.60;7.22;;;;;;;14.84;100.00;101104.50;5309506;28;20031;-74
2022/10/14 07:32:03;;;;;;;8.73;7.35;;;;;;;14.84;100.00;101103.69;5302854;28;20058;-74
2022/10/14 07:34:35;;;;;;;8.00;7.20;;;;;;;14.89;100.00;101105.88;5303534;28;20136;-74
2022/10/14 07:37:06;;;;;;;8.35;7.55;;;;;;;14.91;100.00;101109.19;5306361;28;20115;-74
2022/10/14 07:39:37;;;;;;;9.15;7.65;;;;;;;14.90;100.00;101112.81;5300980;28;20016;-74
2022/10/14 07:42:09;;;;;;;7.45;6.65;;;;;;;14.93;100.00;101104.63;5301405;28;20337;-74
2022/10/14 07:44:40;;;;;;;7.90;7.10;;;;;;;14.94;100.00;101096.53;5309599;28;20031;-74
2022/10/14 07:47:12;;;;;;;9.80;7.50;;;;;;;14.93;100.00;101096.69;5302058;28;20032;-74
2022/10/14 07:49:43;;;;;;;9.32;7.70;;;;;;;14.94;100.00;101096.53;5299397;28;20031;-74
2022/10/14 07:52:14;;;;;;;9.88;8.25;;;;;;;14.98;100.00;101091.78;5306246;28;20102;-74
2022/10/14 07:54:46;;;;;;;8.57;7.68;;;;;;;15.01;100.00;101094.13;5309008;28;20380;-74
2022/10/14 07:57:17;;;;;;;7.82;7.03;;;;;;;15.03;100.00;101100.88;5306459;28;20028;-74
2022/10/14 07:59:48;;;;;;;8.13;6.78;;;;;;;15.07;100.00;101104.03;5312948;28;20020;-74
2022/10/14 08:02:20;;;;;;;7.95;7.15;;;;;;;15.10;100.00;101098.47;5308985;28;20108;-74
2022/10/14 08:04:54;;;;;;;8.23;7.43;;;;;;;15.13;100.00;101087.59;5286063;28;20028;-74
2022/10/14 08:07:26;;;;;;;7.75;7.05;;;;;;;15.14;100.00;101083.97;5307302;28;20039;-74
2022/10/14 08:09:57;;;;;;;8.95;7.20;;;;;;;15.25;100.00;101085.53;5306228;28;20024;-74
2022/10/14 08:12:28;;;;;;;10.00;7.57;;;;;;;15.28;100.00;101096.63;5298010;28;20072;-74
2022/10/14 08:14:59;;;;;;;8.48;7.57;;;;;;;15.29;100.00;101086.88;5301202;28;20042;-74
2022/10/14 08:17:31;;;;;;;8.98;6.95;;;;;;;15.31;100.00;101088.41;5296721;28;20028;-74
2022/10/14 08:20:03;;;;;;;9.43;7.55;;;;;;;15.32;100.00;101081.31;5312824;28;20031;-74
2022/10/14 08:22:34;;;;;;;8.77;7.63;;;;;;;15.46;100.00;101072.00;5318968;28;20026;-74
2022/10/14 08:25:07;;;;;;;8.53;7.47;;;;;;;15.53;100.00;101073.00;5301143;28;20056;-74
2022/10/14 08:27:38;;;;;;;7.65;6.88;;;;;;;15.52;100.00;101072.19;5298293;28;20500;-74
2022/10/14 08:30:10;;;;;;;7.88;6.88;;;;;;;15.54;100.00;101077.31;5312729;28;20504;-74
2022/10/14 08:32:41;;;;;;;7.50;6.80;;;;;;;15.53;100.00;101078.28;5310278;28;20051;-74
2022/10/14 08:35:13;;;;;;;7.95;7.10;;;;;;;15.49;100.00;101076.94;5280961;22;20064;-71
2022/10/14 08:37:54;;;;;;;8.48;7.15;;;;;;;15.65;100.00;101077.09;5251117;28;20102;-71
2022/10/14 08:40:32;;;;;;;7.28;6.57;;;;;;;15.64;100.00;101083.28;5254037;28;20052;-71
2022/10/14 08:43:15;;;;;;;9.75;7.28;;;;;;;15.67;100.00;101084.84;5253731;28;20020;-71
2022/10/14 08:45:51;;;;;;;8.60;6.70;;;;;;;15.72;100.00;101082.53;5234891;28;20025;-71
2022/10/14 08:48:27;;;;;;;7.38;6.45;;;;;;;15.72;100.00;101077.25;5235112;28;20137;-71
2022/10/14 08:51:07;;;;;;;8.13;6.90;;;;;;;15.75;100.00;101072.47;5233896;28;20478;-71
2022/10/14 08:53:52;;;;;;;8.02;7.22;;;;;;;15.89;100.00;101072.88;5235108;28;20026;-71
2022/10/14 08:56:24;;;;;;;7.47;6.65;;;;;;;15.71;100.00;101072.97;5231961;28;20406;-72
2022/10/14 08:58:59;;;;;;;8.95;6.78;;;;;;;15.84;100.00;101067.25;5233331;28;20035;-71
2022/10/14 09:01:39;;;;;;;8.52;7.55;;;;;;;15.82;100.00;101073.50;5233641;28;20036;-72
2022/10/14 09:04:13;;;;;;;6.97;6.07;;;;;;;15.92;100.00;101076.03;5228793;28;20033;-72
2022/10/14 09:06:48;;;;;;;8.57;6.53;;;;;;;15.99;100.00;101076.25;5233800;28;20032;-72
2022/10/14 09:09:29;;;;;;;8.48;6.72;;;;;;;15.99;100.00;101060.38;5234517;28;20077;-72
2022/10/14 09:12:06;;;;;;;7.70;6.90;;;;;;;15.99;100.00;101055.91;5233857;28;20021;-72
2022/10/14 09:14:46;;;;;;;8.40;7.20;;;;;;;16.09;100.00;101062.88;5229794;28;20029;-72
2022/10/14 09:17:26;;;;;;;7.40;6.70;;;;;;;16.15;100.00;101068.34;5229855;28;20040;-72
2022/10/14 09:20:21;;;;;;;7.13;6.13;;;;;;;16.35;100.00;101055.66;5233214;28;20057;-72
2022/10/14 09:23:14;;;;;;;7.18;5.90;;;;;;;16.37;100.00;101058.16;5234240;28;20024;-72
2022/10/14 09:25:55;;;;;;;6.90;6.20;;;;;;;16.26;100.00;101057.47;5231804;28;20117;-71
2022/10/14 09:28:38;;;;;;;6.95;6.25;;;;;;;16.23;100.00;101049.03;5232732;28;20498;-72
2022/10/14 09:31:12;;;;;;;6.93;6.15;;;;;;;16.18;100.00;101054.81;5232617;28;20120;-72
2022/10/14 09:33:44;;;;;;;6.93;6.22;;;;;;;16.16;100.00;101050.69;5234369;28;20041;-72
2022/10/14 09:36:19;;;;;;;6.40;5.72;;;;;;;16.19;100.00;101051.19;5234297;28;20041;-72
2022/10/14 09:38:52;;;;;;;6.95;6.22;;;;;;;16.14;100.00;101037.63;5234505;28;20025;-72
2022/10/14 09:41:29;;;;;;;7.43;6.00;;;;;;;16.16;100.00;101042.75;5233998;28;20025;-72
2022/10/14 09:44:20;;;;;;;7.75;5.75;;;;;;;16.36;100.00;101048.56;5234589;28;20025;-72
2022/10/14 09:46:57;;;;;;;6.57;5.45;;;;;;;16.25;100.00;101041.75;5234640;28;20033;-72
2022/10/14 09:49:32;;;;;;;5.70;5.20;;;;;;;16.27;100.00;101048.56;5232084;28;20037;-72
2022/10/14 09:52:04;;;;;;;7.35;5.53;;;;;;;16.18;100.00;101044.25;5234457;28;20044;-72
2022/10/14 09:54:36;;;;;;;6.83;5.60;;;;;;;16.21;100.00;101043.94;5233632;28;20036;-72
2022/10/14 09:57:16;;;;;;;5.90;5.40;;;;;;;16.37;100.00;101043.13;5233905;28;20299;-72
2022/10/14 09:59:55;;;;;;;6.32;5.25;;;;;;;16.42;100.00;101040.00;5232990;28;20035;-72
2022/10/14 10:02:40;;;;;;;8.50;6.05;;;;;;;16.46;100.00;101034.19;5233761;28;20414;-72
2022/10/14 10:05:20;;;;;;;7.00;6.30;;;;;;;16.42;100.00;101040.00;5231909;28;20272;-72
2022/10/14 10:08:13;;;;;;;8.32;5.82;;;;;;;16.50;100.00;101034.69;5231716;28;20091;-72
2022/10/14 10:11:08;;;;;;;7.97;6.65;;;;;;;16.60;100.00;101032.72;5235704;28;20033;-72
2022/10/14 10:13:45;;;;;;;7.25;6.55;;;;;;;16.39;100.00;101027.09;5235099;28;20029;-72
2022/10/14 10:16:30;;;;;;;6.93;6.22;;;;;;;16.49;100.00;101033.06;5235720;28;20179;-72
2022/10/14 10:19:26;;;;;;;6.93;6.32;;;;;;;16.58;100.00;101026.75;5237663;28;20025;-72
2022/10/14 10:22:25;;;;;;;6.95;6.25;;;;;;;16.62;100.00;101021.97;5235930;28;20056;-72
2022/10/14 10:24:59;;;;;;;7.78;6.43;;;;;;;16.46;100.00;101022.81;5235309;28;20116;-73
2022/10/14 10:27:36;;;;;;;8.57;6.70;;;;;;;16.43;100.00;101015.19;5236290;28;20115;-73
2022/10/14 10:30:23;;;;;;;8.90;6.38;;;;;;;16.58;100.00;101010.91;5235723;28;20049;-72
2022/10/14 10:33:02;;;;;;;8.38;6.55;;;;;;;16.49;100.00;101004.78;5250413;28;20033;-72
2022/10/14 10:35:58;;;;;;;7.30;6.60;;;;;;;16.66;100.00;101015.38;5234901;28;20037;-72
2022/10/14 10:38:51;;;;;;;6.95;6.25;;;;;;;16.39;100.00;101008.56;5235104;28;20451;-72
2022/10/14 10:41:40;;;;;;;6.53;5.93;;;;;;;16.47;100.00;101001.47;5234368;28;20108;-72
2022/10/14 10:44:21;;;;;;;7.90;6.38;;;;;;;16.40;100.00;101007.56;5232859;28;20034;-72
2022/10/14 10:47:11;;;;;;;7.28;6.25;;;;;;;16.51;100.00;101004.59;5235556;28;20025;-72
2022/10/14 10:50:16;;;;;;;6.53;5.85;;;;;;;16.60;100.00;101008.09;5236982;28;20021;-72
2022/10/14 10:53:10;;;;;;;8.98;5.50;;;;;;;16.68;100.00;101008.91;5236931;28;20151;-72
2022/10/14 10:56:00;;;;;;;;;;;;;;;17.11;100.00;100988.38;5236535;28;20022;-72
2022/10/14 10:58:55;;;;;;;5.82;5.30;;;;;;;16.89;100.00;100997.03;5235655;28;19917;-73
2022/10/14 11:01:49;;;;;;;5.55;5.10;;;;;;;16.80;100.00;100995.38;5235846;28;20433;-72
2022/10/14 11:04:42;;;;;;;6.03;5.28;;;;;;;16.88;100.00;100998.03;5235715;28;20026;-72
2022/10/14 11:13:44;;;;;;;5.45;4.93;;;;;;;16.73;100.00;100998.69;5235591;28;20037;-73
2022/10/14 11:16:44;;;;;;;6.20;5.40;;;;;;;16.92;100.00;100986.09;5237067;28;20398;-72
2022/10/14 11:19:28;;;;;;;5.60;5.00;;;;;;;16.72;100.00;100986.44;5235435;28;20041;-72
2022/10/14 11:22:27;;;;;;;6.07;5.57;;;;;;;16.78;100.00;100983.16;5235366;28;20033;-72
2022/10/14 11:25:17;;;;;;;6.20;5.60;;;;;;;16.81;100.00;100981.97;5235672;28;20080;-72
2022/10/14 11:28:01;;;;;;;6.65;6.05;;;;;;;16.66;100.00;100987.09;5235148;28;20179;-72
2022/10/14 11:30:45;;;;;;;6.18;5.65;;;;;;;16.59;100.00;100975.50;5234645;28;20503;-72
2022/10/14 11:33:36;;;;;;;6.00;5.40;;;;;;;16.69;100.00;100976.19;5236023;28;20021;-73
2022/10/14 11:36:32;;;;;;;5.75;5.25;;;;;;;16.73;100.00;100972.22;5236463;28;20048;-72
2022/10/14 11:39:27;;;;;;;5.70;5.20;;;;;;;16.85;100.00;100959.47;5236570;28;20036;-72
2022/10/14 11:42:37;;;;;;;6.57;5.95;;;;;;;16.85;100.00;100966.59;5235654;28;20033;-73
2022/10/14 11:45:49;;;;;;;7.45;5.82;;;;;;;16.89;100.00;100950.22;5235447;28;20061;-72
2022/10/14 11:48:23;;;;;;;8.32;5.97;;;;;;;16.68;100.00;100953.38;5235910;28;20030;-72
2022/10/14 11:51:06;;;;;;;6.68;6.10;;;;;;;16.81;100.00;100944.13;5233775;28;20025;-73
2022/10/14 11:53:58;;;;;;;7.40;6.07;;;;;;;16.92;100.00;100939.28;5235858;28;20021;-73
2022/10/14 11:56:49;;;;;;;7.70;5.90;;;;;;;16.93;100.00;100935.66;5235810;28;20021;-72